Time;durP1;ratioP1;P1;durP2;ratioP2;P2;SDS_P1;SDS_P2;PMS_P1;PMS_P2;Temp;Humidity;BMP_temperature;BMP_pressure;BME280_temperature;BME280_humidity;BME280_pressure;Samples;Min_cycle;Max_cycle;Signal;HPM_P1;HPM_P2
2022/06/22 00:01:20;;;;;;;10.85;7.50;;;;;;;11.95;100.00;101472.41;4906587;29;20040;-78
2022/06/22 00:03:52;;;;;;;14.40;8.57;;;;;;;11.93;100.00;101479.44;4900736;29;20636;-77
2022/06/22 00:06:40;;;;;;;10.38;8.55;;;;;;;11.90;100.00;101476.75;4908615;29;20070;-78
2022/06/22 00:09:22;;;;;;;11.48;8.65;;;;;;;11.88;100.00;101475.81;4891390;29;20536;-77
2022/06/22 00:11:51;;;;;;;11.18;8.48;;;;;;;11.89;100.00;101474.97;4902280;29;20427;-78
2022/06/22 00:14:27;;;;;;;11.57;8.85;;;;;;;11.86;100.00;101480.22;4844481;29;20116;-77
2022/06/22 00:16:56;;;;;;;9.60;8.57;;;;;;;11.81;100.00;101488.06;4903838;29;20071;-77
2022/06/22 00:19:34;;;;;;;12.73;8.02;;;;;;;11.78;100.00;101487.19;4906838;29;20040;-78
2022/06/22 00:22:02;;;;;;;10.32;8.18;;;;;;;11.76;100.00;101484.53;4898148;29;20047;-77
2022/06/22 00:24:38;;;;;;;8.48;6.90;;;;;;;11.70;100.00;101490.66;4911810;29;20543;-77
2022/06/22 00:27:15;;;;;;;13.82;7.93;;;;;;;11.69;100.00;101483.59;4903209;29;20405;-77
2022/06/22 00:29:45;;;;;;;10.70;7.35;;;;;;;11.69;100.00;101477.44;4845270;29;20078;-77
2022/06/22 00:32:15;;;;;;;11.13;7.40;;;;;;;11.67;100.00;101490.59;4910549;29;20155;-78
2022/06/22 00:34:44;;;;;;;10.60;8.63;;;;;;;11.63;100.00;101494.09;4907688;29;20048;-78
2022/06/22 00:37:15;;;;;;;10.63;7.72;;;;;;;11.58;100.00;101492.28;4913095;29;20040;-78
2022/06/22 00:39:50;;;;;;;10.38;7.55;;;;;;;11.53;100.00;101486.97;4900665;29;20151;-77
2022/06/22 00:42:39;;;;;;;12.73;7.90;;;;;;;11.50;100.00;101486.94;4892331;29;20049;-76
2022/06/22 00:45:27;;;;;;;8.07;7.30;;;;;;;11.46;100.00;101491.28;4908150;29;20044;-77
2022/06/22 00:48:04;;;;;;;9.23;7.93;;;;;;;11.44;100.00;101486.88;4909626;29;20043;-78
2022/06/22 00:50:40;;;;;;;8.85;8.05;;;;;;;11.40;100.00;101488.59;4908523;29;20044;-78
2022/06/22 00:53:18;;;;;;;13.05;8.48;;;;;;;11.37;100.00;101480.66;4913329;29;20052;-77
2022/06/22 00:56:04;;;;;;;11.02;8.32;;;;;;;11.34;100.00;101479.72;4905200;29;20449;-76
2022/06/22 00:58:45;;;;;;;9.52;7.75;;;;;;;11.31;100.00;101484.09;4898986;29;20048;-76
2022/06/22 01:01:23;;;;;;;14.07;9.25;;;;;;;11.31;100.00;101476.19;4878919;29;20044;-79
2022/06/22 01:04:08;;;;;;;14.48;8.88;;;;;;;11.32;100.00;101477.97;4906015;29;20442;-77
2022/06/22 01:07:14;;;;;;;10.45;8.80;;;;;;;11.33;100.00;101473.56;4902110;29;20036;-77
2022/06/22 01:10:07;;;;;;;12.35;10.30;;;;;;;11.35;100.00;101457.75;4880065;29;20434;-76
2022/06/22 01:12:59;;;;;;;14.75;9.30;;;;;;;11.34;100.00;101454.22;4894453;29;20060;-77
2022/06/22 01:15:36;;;;;;;16.17;10.20;;;;;;;11.35;100.00;101455.13;4907940;29;20040;-77
2022/06/22 01:18:16;;;;;;;14.07;9.57;;;;;;;11.36;100.00;101468.34;4881030;29;20397;-77
2022/06/22 01:20:55;;;;;;;14.50;8.37;;;;;;;11.36;100.00;101463.06;4911243;29;20238;-77
2022/06/22 01:24:00;;;;;;;14.85;9.63;;;;;;;11.34;100.00;101459.50;4908938;29;20044;-77
2022/06/22 01:26:47;;;;;;;12.10;9.23;;;;;;;11.32;100.00;101466.50;4904116;29;20048;-77
2022/06/22 01:29:20;;;;;;;14.07;9.70;;;;;;;11.30;100.00;101450.69;4888997;29;20044;-77
2022/06/22 01:32:00;;;;;;;14.35;9.10;;;;;;;11.26;100.00;101451.50;4919806;29;20161;-76
2022/06/22 01:34:37;;;;;;;12.13;9.98;;;;;;;11.24;100.00;101449.72;4877527;29;20044;-76
2022/06/22 01:37:12;;;;;;;13.02;9.13;;;;;;;11.23;100.00;101453.25;4897373;29;20068;-77
2022/06/22 01:39:41;;;;;;;14.52;9.52;;;;;;;11.22;100.00;101457.63;4904580;29;20049;-76
2022/06/22 01:42:31;;;;;;;11.60;9.38;;;;;;;11.21;100.00;101449.69;4912356;29;20063;-76
2022/06/22 01:45:17;;;;;;;11.10;9.65;;;;;;;11.20;100.00;101450.56;4904388;29;20052;-76
2022/06/22 01:47:54;;;;;;;11.05;9.88;;;;;;;11.20;100.00;101456.72;4869616;29;20422;-77
2022/06/22 01:50:22;;;;;;;14.85;9.88;;;;;;;11.23;100.00;101461.16;4901898;29;20394;-77
2022/06/22 01:53:08;;;;;;;11.25;8.20;;;;;;;11.24;100.00;101457.66;4880031;29;20281;-77
2022/06/22 01:55:57;;;;;;;16.08;10.02;;;;;;;11.25;100.00;101462.94;4902941;29;20063;-77
2022/06/22 01:58:42;;;;;;;11.30;8.95;;;;;;;11.25;100.00;101462.94;4909130;29;20055;-77
2022/06/22 02:01:44;;;;;;;10.85;7.97;;;;;;;11.26;100.00;101466.47;4895257;29;20402;-77
2022/06/22 02:04:44;;;;;;;13.43;8.10;;;;;;;11.24;100.00;101474.34;4867596;29;20163;-77
2022/06/22 02:07:46;;;;;;;11.38;8.18;;;;;;;11.24;100.00;101476.13;4905888;29;20387;-77
2022/06/22 02:10:37;;;;;;;13.45;8.88;;;;;;;11.24;100.00;101484.91;4910122;29;20513;-77
2022/06/22 02:13:30;;;;;;;11.98;9.77;;;;;;;11.25;100.00;101478.78;4890367;29;20044;-76
2022/06/22 02:16:06;;;;;;;15.52;9.43;;;;;;;11.27;100.00;101473.53;4905431;29;20063;-77
2022/06/22 02:19:10;;;;;;;11.65;9.48;;;;;;;11.30;100.00;101471.81;4866468;29;20258;-76
2022/06/22 02:21:44;;;;;;;12.23;10.48;;;;;;;11.35;100.00;101466.56;4861261;29;20284;-77
2022/06/22 02:24:38;;;;;;;11.10;9.93;;;;;;;11.37;100.00;101478.00;4886072;29;20075;-77
2022/06/22 02:27:20;;;;;;;12.93;9.98;;;;;;;11.38;100.00;101473.59;4904411;29;20075;-76
2022/06/22 02:29:52;;;;;;;11.07;9.38;;;;;;;11.37;100.00;101478.00;4908602;29;20063;-76
2022/06/22 02:32:38;;;;;;;11.57;8.75;;;;;;;11.36;100.00;101476.25;4910057;29;20362;-77
2022/06/22 02:35:10;;;;;;;9.27;8.38;;;;;;;11.34;100.00;101475.31;4867465;29;20398;-77
2022/06/22 02:37:46;;;;;;;10.85;8.88;;;;;;;11.31;100.00;101481.47;4886836;29;20052;-77
2022/06/22 02:40:18;;;;;;;13.20;9.65;;;;;;;11.29;100.00;101474.41;4909510;29;20048;-77
2022/06/22 02:45:34;;;;;;;13.77;10.02;;;;;;;11.26;100.00;101479.66;4909360;29;20036;-77
2022/06/22 02:48:12;;;;;;;11.80;10.48;;;;;;;11.22;100.00;101486.66;4900513;29;20047;-77
2022/06/22 02:50:59;;;;;;;11.75;9.40;;;;;;;11.19;100.00;101486.63;4881957;29;20055;-77
2022/06/22 02:53:34;;;;;;;12.18;8.43;;;;;;;11.16;100.00;101489.22;4905868;29;20044;-77
2022/06/22 02:56:06;;;;;;;9.88;8.13;;;;;;;11.12;100.00;101477.75;4925206;29;20040;-77
2022/06/22 02:58:37;;;;;;;10.25;9.25;;;;;;;11.09;100.00;101475.06;4900819;29;20257;-76
2022/06/22 03:01:14;;;;;;;10.02;9.13;;;;;;;11.07;100.00;101476.81;4895925;29;20055;-77
2022/06/22 03:03:52;;;;;;;12.43;9.73;;;;;;;11.08;100.00;101485.63;4899180;29;20039;-77
2022/06/22 03:06:35;;;;;;;10.45;9.32;;;;;;;11.07;100.00;101489.13;4887760;29;20040;-77
2022/06/22 03:09:05;;;;;;;13.02;9.32;;;;;;;11.04;100.00;101495.25;4910305;29;20410;-76
2022/06/22 03:11:37;;;;;;;;;;;;;;;11.01;100.00;101492.56;4904481;29;20477;-77
2022/06/22 03:14:27;;;;;;;10.30;8.85;;;;;;;11.02;100.00;101501.34;4903382;29;19925;-77
2022/06/22 03:17:03;;;;;;;14.10;9.90;;;;;;;11.01;100.00;101496.97;4908404;29;20498;-76
2022/06/22 03:20:00;;;;;;;10.10;9.20;;;;;;;10.99;100.00;101498.69;4866435;29;20281;-76
2022/06/22 03:22:40;;;;;;;9.18;8.27;;;;;;;10.97;100.00;101498.69;4905042;29;20052;-76
2022/06/22 03:25:32;;;;;;;;;;;;;;;10.97;100.00;101511.00;4897530;29;20044;-77
2022/06/22 03:28:16;;;;;;;10.98;9.88;;;;;;;10.98;100.00;101504.81;4903030;29;19946;-77
2022/06/22 03:31:11;;;;;;;11.60;9.65;;;;;;;11.00;100.00;101516.28;4902118;29;20663;-77
2022/06/22 03:34:14;;;;;;;12.90;10.63;;;;;;;11.02;100.00;101514.53;4902048;29;20059;-77
2022/06/22 03:37:04;;;;;;;12.35;9.98;;;;;;;11.03;100.00;101516.31;4830051;29;20540;-76
2022/06/22 03:39:37;;;;;;;10.23;9.32;;;;;;;11.04;100.00;101524.25;4904769;29;20453;-77
2022/06/22 03:42:17;;;;;;;9.93;8.88;;;;;;;11.08;100.00;101525.19;4909715;29;20063;-77
2022/06/22 03:45:06;;;;;;;10.85;9.85;;;;;;;11.08;100.00;101527.81;4893885;29;20270;-77
2022/06/22 03:47:42;;;;;;;9.90;8.68;;;;;;;11.09;100.00;101534.84;4903851;29;20281;-76
2022/06/22 03:50:32;;;;;;;10.35;8.45;;;;;;;11.09;100.00;101519.03;4910454;29;20410;-77
2022/06/22 03:53:30;;;;;;;9.80;8.77;;;;;;;11.13;100.00;101523.47;4926271;29;20383;-77
2022/06/22 03:56:04;;;;;;;9.70;8.70;;;;;;;11.12;100.00;101525.22;4909410;29;20291;-76
2022/06/22 03:58:32;;;;;;;10.25;8.95;;;;;;;11.15;100.00;101511.19;4905577;29;20074;-77
2022/06/22 04:01:03;;;;;;;9.48;8.18;;;;;;;11.18;100.00;101515.63;4890755;29;20040;-77
2022/06/22 04:03:32;;;;;;;;;;;;;;;11.19;100.00;101501.56;4905909;29;20249;-77
2022/06/22 04:06:03;;;;;;;10.40;9.30;;;;;;;11.21;100.00;101503.34;4912770;29;19923;-76
2022/06/22 04:08:35;;;;;;;9.40;8.50;;;;;;;11.23;100.00;101501.63;4862004;29;20048;-77
2022/06/22 04:11:14;;;;;;;9.10;8.23;;;;;;;11.28;100.00;101499.00;4879080;29;20060;-78
2022/06/22 04:14:06;;;;;;;9.50;8.13;;;;;;;11.31;100.00;101501.69;4922087;29;20285;-76
2022/06/22 04:16:42;;;;;;;8.18;7.35;;;;;;;11.36;100.00;101499.09;4889998;29;20249;-76
2022/06/22 04:19:33;;;;;;;8.57;7.88;;;;;;;11.41;100.00;101494.75;4881835;29;20048;-78
2022/06/22 04:22:09;;;;;;;9.60;8.13;;;;;;;11.48;100.00;101489.56;4911897;29;20044;-78
2022/06/22 04:25:18;;;;;;;9.18;8.13;;;;;;;11.54;100.00;101478.16;4879796;29;20052;-77
2022/06/22 04:27:49;;;;;;;11.00;7.57;;;;;;;11.59;100.00;101470.31;4914621;29;20044;-78
2022/06/22 04:30:31;;;;;;;8.68;7.82;;;;;;;11.66;100.00;101466.81;4899119;29;20064;-78
2022/06/22 04:33:12;;;;;;;9.13;7.13;;;;;;;11.76;100.00;101465.16;4895209;29;20086;-78
2022/06/22 04:35:46;;;;;;;9.40;7.68;;;;;;;11.84;100.00;101453.78;4909114;29;20269;-78
2022/06/22 04:38:39;;;;;;;8.05;7.25;;;;;;;11.97;100.00;101446.00;4878114;29;20044;-77
2022/06/22 04:41:29;;;;;;;8.30;7.60;;;;;;;12.05;100.00;101442.50;4909420;29;20133;-78
2022/06/22 04:44:02;;;;;;;8.38;7.63;;;;;;;12.13;100.00;101444.34;4910452;29;20052;-77
2022/06/22 04:46:39;;;;;;;10.00;8.68;;;;;;;12.19;100.00;101431.16;4901857;29;20138;-77
2022/06/22 04:49:24;;;;;;;10.82;9.73;;;;;;;12.33;100.00;101442.69;4917370;29;20044;-77
2022/06/22 04:52:07;;;;;;;14.05;10.82;;;;;;;12.45;100.00;101455.97;4908845;29;20063;-77
2022/06/22 04:54:40;;;;;;;15.63;10.93;;;;;;;12.52;100.00;101454.25;4874864;29;20067;-78
2022/06/22 04:57:20;;;;;;;11.38;10.05;;;;;;;12.58;100.00;101450.75;4908474;29;20044;-77
2022/06/22 04:59:50;;;;;;;14.43;10.90;;;;;;;12.63;100.00;101443.72;4908857;29;20048;-78
2022/06/22 05:02:23;;;;;;;15.82;11.82;;;;;;;12.71;100.00;101444.63;4900675;29;20051;-77
2022/06/22 05:05:07;;;;;;;12.75;11.50;;;;;;;12.84;100.00;101453.50;4905859;29;20051;-78
2022/06/22 05:07:51;;;;;;;18.17;14.23;;;;;;;13.20;100.00;101457.13;4911591;29;20498;-78
2022/06/22 05:10:46;;;;;;;22.17;14.02;;;;;;;14.10;100.00;101447.44;4879166;29;20067;-77
2022/06/22 05:13:19;;;;;;;16.65;12.90;;;;;;;15.20;100.00;101447.03;4899063;29;20051;-78
2022/06/22 05:15:51;;;;;;;13.82;11.38;;;;;;;16.34;100.00;101437.22;4907149;29;20072;-78
2022/06/22 05:18:24;;;;;;;17.25;11.00;;;;;;;17.52;100.00;101432.97;4888593;29;20032;-77
2022/06/22 05:20:55;;;;;;;13.15;10.02;;;;;;;18.57;100.00;101424.84;4889148;29;20265;-77
2022/06/22 05:23:26;;;;;;;11.98;8.68;;;;;;;19.45;100.00;101429.09;4908584;29;20072;-77
2022/06/22 05:26:04;;;;;;;13.45;9.20;;;;;;;20.23;100.00;101424.44;4861965;29;20177;-77
2022/06/22 05:28:39;;;;;;;9.43;8.25;;;;;;;20.92;100.00;101424.22;4922832;29;20044;-78
2022/06/22 05:31:21;;;;;;;9.35;6.90;;;;;;;21.46;100.00;101422.56;4908472;29;20036;-77
2022/06/22 05:33:55;;;;;;;8.15;5.72;;;;;;;21.98;100.00;101423.47;4887301;29;20513;-78
2022/06/22 05:36:29;;;;;;;10.05;5.93;;;;;;;22.50;100.00;101422.53;4892927;29;20406;-77
2022/06/22 05:39:00;;;;;;;8.68;5.32;;;;;;;22.93;99.98;101431.59;4886355;29;20056;-77
2022/06/22 05:41:30;;;;;;;10.50;6.10;;;;;;;23.30;95.46;101431.03;4870887;29;20151;-77
2022/06/22 05:44:05;;;;;;;8.35;5.10;;;;;;;23.78;92.53;101429.06;4904694;29;20139;-77
2022/06/22 05:46:34;;;;;;;8.05;4.22;;;;;;;24.25;88.48;101427.94;4909451;29;20382;-77
2022/06/22 05:49:03;;;;;;;8.35;4.82;;;;;;;24.62;84.55;101426.31;4879275;29;20044;-77
2022/06/22 05:51:54;;;;;;;4.60;3.97;;;;;;;25.06;78.65;101439.47;4906278;29;20052;-77
2022/06/22 05:55:04;;;;;;;7.65;4.72;;;;;;;25.09;78.02;101450.13;4894652;29;20409;-76
2022/06/22 05:57:47;;;;;;;7.03;4.28;;;;;;;24.95;73.06;101447.22;4852395;29;20045;-75
2022/06/22 06:00:33;;;;;;;6.80;4.50;;;;;;;24.37;73.73;101440.88;4855505;29;20056;-76
2022/06/22 06:03:29;;;;;;;4.50;4.07;;;;;;;23.71;74.48;101444.59;4906210;29;20734;-75
2022/06/22 06:06:15;;;;;;;7.80;4.70;;;;;;;23.16;75.37;101449.56;4909563;29;20263;-76
2022/06/22 06:09:07;;;;;;;7.00;4.25;;;;;;;22.84;75.67;101453.47;4888369;29;20519;-76
2022/06/22 06:11:41;;;;;;;8.88;5.70;;;;;;;22.61;76.56;101446.28;4905541;29;20052;-76
2022/06/22 06:14:19;;;;;;;6.30;4.82;;;;;;;22.64;78.31;101446.16;4894519;29;20491;-76
2022/06/22 06:16:51;;;;;;;6.68;4.05;;;;;;;22.62;77.32;101448.03;4909568;29;20541;-76
2022/06/22 06:19:23;;;;;;;6.65;4.45;;;;;;;22.63;75.42;101456.03;4904569;29;20040;-76
2022/06/22 06:21:55;;;;;;;5.97;4.60;;;;;;;22.66;75.20;101460.41;4909515;29;20048;-76
2022/06/22 06:24:26;;;;;;;8.15;5.18;;;;;;;22.82;76.66;101458.91;4867447;29;20063;-76
2022/06/22 06:30:18;;;;;;;7.68;5.10;;;;;;;23.09;72.54;101469.53;4873694;29;20052;-76
2022/06/22 06:33:12;;;;;;;7.03;5.60;;;;;;;22.78;72.27;101462.66;4892642;29;20059;-76
2022/06/22 06:35:54;;;;;;;11.73;6.60;;;;;;;22.47;73.63;101463.78;4902968;29;20060;-76
2022/06/22 06:38:40;;;;;;;9.07;5.28;;;;;;;22.25;74.13;101455.66;4910241;29;20055;-76
2022/06/22 06:41:17;;;;;;;8.95;6.20;;;;;;;21.97;75.89;101474.50;4899061;29;20070;-76
2022/06/22 06:43:57;;;;;;;8.93;6.68;;;;;;;21.72;75.03;101480.69;4892864;29;20520;-76
2022/06/22 06:46:39;;;;;;;7.82;5.57;;;;;;;21.51;75.21;101468.88;4897174;29;20041;-75
2022/06/22 06:49:17;;;;;;;8.73;5.55;;;;;;;21.30;74.34;101472.19;4908193;29;20067;-75
2022/06/22 06:51:59;;;;;;;9.25;5.00;;;;;;;21.13;74.06;101472.72;4897385;29;20059;-76
2022/06/22 06:54:46;;;;;;;7.32;4.85;;;;;;;21.07;75.81;101472.91;4911513;29;20052;-76
2022/06/22 06:57:19;;;;;;;6.32;5.20;;;;;;;20.96;77.05;101474.13;4915679;29;20558;-76
2022/06/22 06:59:50;;;;;;;10.25;5.88;;;;;;;20.75;77.23;101474.75;4875237;29;20402;-76
2022/06/22 07:02:34;;;;;;;10.15;5.25;;;;;;;20.56;78.77;101480.59;4920981;29;20039;-76
2022/06/22 07:05:08;;;;;;;9.45;6.25;;;;;;;20.47;79.04;101479.97;4909682;29;20253;-76
2022/06/22 07:07:43;;;;;;;8.23;5.18;;;;;;;20.42;79.15;101472.09;4915333;29;20063;-76
2022/06/22 07:10:19;;;;;;;9.27;6.25;;;;;;;20.36;79.77;101477.59;4899091;29;20055;-76
2022/06/22 07:12:54;;;;;;;8.48;5.97;;;;;;;20.21;80.41;101485.13;4917785;29;20044;-77
2022/06/22 07:15:27;;;;;;;12.00;6.40;;;;;;;20.05;82.74;101484.66;4880091;29;20056;-78
2022/06/22 07:18:00;;;;;;;8.65;6.68;;;;;;;19.94;83.32;101475.16;4908758;29;20052;-78
2022/06/22 07:20:36;;;;;;;9.65;6.00;;;;;;;19.90;85.79;101469.00;4890088;29;20742;-78
2022/06/22 07:23:20;;;;;;;12.32;7.35;;;;;;;19.96;85.08;101467.97;4894980;29;20048;-77
2022/06/22 07:25:55;;;;;;;11.60;4.85;;;;;;;19.96;83.63;101473.31;4896415;29;20032;-78
2022/06/22 07:28:34;;;;;;;7.47;4.32;;;;;;;19.96;82.98;101478.66;4901174;29;20060;-78
2022/06/22 07:31:11;;;;;;;10.80;4.30;;;;;;;20.00;82.92;101477.66;4861386;29;20394;-76
2022/06/22 07:33:41;;;;;;;9.23;4.90;;;;;;;20.03;82.96;101477.59;4900856;29;20044;-76
2022/06/22 07:36:20;;;;;;;9.18;5.32;;;;;;;20.05;82.90;101468.59;4892672;29;20445;-77
2022/06/22 07:39:00;;;;;;;8.10;4.45;;;;;;;20.01;82.18;101480.31;4888764;29;20052;-79
2022/06/22 07:41:31;;;;;;;5.88;3.83;;;;;;;19.95;82.68;101487.63;4903126;29;20052;-76
2022/06/22 07:44:04;;;;;;;10.00;4.22;;;;;;;19.96;82.72;101484.00;4905493;29;20051;-77
2022/06/22 07:47:06;;;;;;;10.13;4.60;;;;;;;19.94;83.31;101494.75;4887151;29;20063;-76
2022/06/22 07:49:58;;;;;;;8.90;4.40;;;;;;;19.92;83.42;101503.75;4919052;29;20614;-77
2022/06/22 07:52:41;;;;;;;7.55;3.60;;;;;;;19.94;84.05;101492.06;4901612;29;20174;-76
2022/06/22 07:55:37;;;;;;;10.05;4.35;;;;;;;20.02;85.26;101486.56;4904120;29;20057;-77
2022/06/22 07:58:20;;;;;;;6.88;4.32;;;;;;;20.15;83.96;101493.34;4899835;29;20048;-77
2022/06/22 08:00:55;;;;;;;11.07;4.78;;;;;;;20.03;82.86;101504.34;4876755;29;20048;-77
2022/06/22 08:03:34;;;;;;;5.75;3.70;;;;;;;19.89;83.81;101496.69;4899901;29;20173;-76
2022/06/22 08:06:08;;;;;;;9.48;3.83;;;;;;;19.76;83.89;101505.94;4929692;28;20040;-77
2022/06/22 08:08:44;;;;;;;8.93;4.53;;;;;;;19.75;84.54;101502.34;4917774;29;20412;-77
2022/06/22 08:11:30;;;;;;;6.63;4.40;;;;;;;19.81;85.24;101507.56;4912228;29;20056;-76
2022/06/22 08:14:21;;;;;;;8.48;4.82;;;;;;;19.91;84.53;101508.22;4905522;29;20445;-77
2022/06/22 08:16:55;;;;;;;10.07;4.50;;;;;;;19.91;84.32;101500.19;4893753;28;20055;-76
2022/06/22 08:19:27;;;;;;;9.50;4.50;;;;;;;19.76;84.65;101509.47;4904724;29;20357;-77
2022/06/22 08:22:00;;;;;;;7.68;3.85;;;;;;;19.71;84.80;101497.97;4921577;29;20070;-76
2022/06/22 08:24:32;;;;;;;10.85;4.28;;;;;;;19.75;84.67;101513.03;4925296;28;20051;-77
2022/06/22 08:27:07;;;;;;;9.73;4.55;;;;;;;19.82;84.47;101505.78;4909113;29;20052;-76
2022/06/22 08:29:37;;;;;;;9.70;4.28;;;;;;;19.86;85.07;101500.28;4900885;29;20502;-78
2022/06/22 08:32:08;;;;;;;5.97;3.72;;;;;;;19.94;85.45;101497.41;4871515;29;20060;-76
2022/06/22 08:34:54;;;;;;;5.80;3.85;;;;;;;20.05;85.23;101487.31;4912494;29;20044;-77
2022/06/22 08:37:31;;;;;;;9.52;4.05;;;;;;;20.11;84.95;101494.31;4884306;29;20044;-78
2022/06/22 08:40:11;;;;;;;11.93;4.28;;;;;;;20.17;84.59;101491.50;4933914;28;20063;-78
2022/06/22 08:43:18;;;;;;;10.63;4.05;;;;;;;20.22;85.89;101496.72;4909466;29;20056;-76
2022/06/22 08:46:02;;;;;;;6.80;3.72;;;;;;;20.20;83.66;101503.91;4899597;29;20051;-78
2022/06/22 08:48:38;;;;;;;7.38;3.58;;;;;;;20.22;85.44;101497.56;4886092;29;20048;-77
2022/06/22 08:51:19;;;;;;;8.52;3.85;;;;;;;20.29;84.66;101498.31;4910771;29;20066;-78
2022/06/22 08:54:09;;;;;;;4.82;3.22;;;;;;;20.29;85.22;101498.31;4906277;29;20048;-78
2022/06/22 08:56:51;;;;;;;8.75;3.58;;;;;;;20.29;84.40;101492.97;4911567;29;20433;-77
2022/06/22 08:59:55;;;;;;;8.73;3.58;;;;;;;20.24;83.90;101479.72;4907043;29;20052;-77
2022/06/22 09:03:04;;;;;;;6.70;3.53;;;;;;;20.21;83.87;101485.13;4922830;29;20044;-77
2022/06/22 09:05:45;;;;;;;7.35;3.17;;;;;;;20.20;82.86;101491.41;4902074;29;20273;-76
2022/06/22 09:08:32;;;;;;;9.70;3.90;;;;;;;20.19;83.63;101491.47;4902314;29;20036;-78
2022/06/22 09:11:07;;;;;;;14.57;4.03;;;;;;;20.20;82.79;101495.88;4918896;29;20706;-78
2022/06/22 09:13:47;;;;;;;8.18;3.88;;;;;;;20.12;82.74;101497.88;4907041;29;20548;-77
2022/06/22 09:16:44;;;;;;;9.05;4.60;;;;;;;20.05;82.51;101494.47;4908702;29;20157;-78
2022/06/22 09:19:26;;;;;;;8.95;3.65;;;;;;;20.10;82.82;101494.38;4889979;29;20055;-77
2022/06/22 09:22:14;;;;;;;8.45;3.85;;;;;;;20.14;83.06;101483.53;4909821;29;20056;-76
2022/06/22 09:24:45;;;;;;;4.95;3.78;;;;;;;20.16;82.14;101499.56;4912896;29;20051;-78
2022/06/22 09:27:34;;;;;;;9.48;4.43;;;;;;;20.21;80.36;101506.53;4902990;29;20497;-77
2022/06/22 09:30:20;;;;;;;10.48;4.53;;;;;;;20.25;81.88;101491.28;4914150;29;20047;-76
2022/06/22 09:33:21;;;;;;;9.43;4.38;;;;;;;20.32;83.13;101502.69;4901872;29;20378;-77
2022/06/22 09:36:16;;;;;;;9.82;4.90;;;;;;;20.39;81.32;101501.59;4900624;29;20036;-77
2022/06/22 09:39:13;;;;;;;8.45;3.95;;;;;;;20.39;82.28;101502.47;4918439;29;20040;-77
2022/06/22 09:42:00;;;;;;;9.40;4.40;;;;;;;20.43;82.69;101504.19;4909778;29;20406;-77
2022/06/22 09:44:56;;;;;;;10.40;4.45;;;;;;;20.43;84.28;101508.63;4922158;29;20248;-77
2022/06/22 09:47:51;;;;;;;10.70;4.00;;;;;;;20.48;84.02;101514.75;4881794;29;20517;-77
2022/06/22 09:50:50;;;;;;;10.70;4.70;;;;;;;20.48;84.29;101513.88;4855535;29;20140;-77
2022/06/22 09:54:03;;;;;;;10.65;5.28;;;;;;;20.49;85.34;101518.28;4907825;29;20241;-77
2022/06/22 09:57:12;;;;;;;9.55;4.25;;;;;;;20.37;84.59;101511.47;4918552;29;20330;-77
2022/06/22 09:59:51;;;;;;;9.50;4.70;;;;;;;20.33;85.72;101516.03;4896521;29;20048;-77
2022/06/22 10:02:42;;;;;;;8.77;4.60;;;;;;;20.43;86.81;101513.97;4910468;29;20051;-76
2022/06/22 10:05:33;;;;;;;9.18;5.15;;;;;;;20.42;86.59;101512.25;4869334;29;20366;-77
2022/06/22 10:08:20;;;;;;;8.02;4.10;;;;;;;20.48;86.98;101516.56;4915951;29;20047;-77
2022/06/22 10:11:03;;;;;;;13.48;4.70;;;;;;;20.42;86.00;101509.56;4912451;29;20052;-77
2022/06/22 10:13:39;;;;;;;13.32;5.03;;;;;;;20.45;87.00;101506.78;4922778;28;20040;-77
2022/06/22 10:16:27;;;;;;;6.80;4.10;;;;;;;20.51;86.29;101503.97;4910836;29;20048;-77
2022/06/22 10:19:13;;;;;;;9.45;4.03;;;;;;;20.51;85.56;101509.31;4903945;29;20047;-77
2022/06/22 10:21:45;;;;;;;9.75;4.65;;;;;;;20.56;85.83;101502.00;4917380;29;20044;-77
2022/06/22 10:24:26;;;;;;;9.85;3.97;;;;;;;20.63;85.00;101500.09;4909261;29;20059;-77
2022/06/22 10:27:07;;;;;;;10.50;4.45;;;;;;;20.69;85.66;101502.59;4913122;29;20070;-77
2022/06/22 10:30:00;;;;;;;8.68;4.40;;;;;;;20.78;84.62;101512.16;4891431;29;20067;-77
2022/06/22 10:32:43;;;;;;;11.48;4.28;;;;;;;20.89;85.38;101499.34;4906320;29;20254;-77
2022/06/22 10:35:22;;;;;;;8.77;4.10;;;;;;;20.97;84.71;101499.97;4901774;29;20063;-77
2022/06/22 10:37:57;;;;;;;9.35;3.80;;;;;;;21.05;84.11;101509.59;4910075;29;20040;-77
2022/06/22 10:47:19;;;;;;;9.00;4.18;;;;;;;21.42;83.69;101499.50;4906798;29;20048;-77
2022/06/22 10:50:03;;;;;;;7.63;3.90;;;;;;;21.53;84.30;101504.56;4898192;29;20273;-77
2022/06/22 10:52:55;;;;;;;9.02;4.10;;;;;;;21.60;83.63;101506.09;4884095;29;20379;-77
2022/06/22 10:55:48;;;;;;;5.47;3.75;;;;;;;21.62;84.38;101506.03;4906618;29;20602;-77
2022/06/22 10:58:35;;;;;;;10.45;4.05;;;;;;;21.71;83.46;101502.19;4921233;29;20246;-77
2022/06/22 11:01:29;;;;;;;7.07;4.25;;;;;;;21.76;83.11;101503.78;4915404;29;20036;-77
2022/06/22 11:04:22;;;;;;;7.55;3.95;;;;;;;21.73;81.99;101498.53;4931280;28;20062;-77
2022/06/22 11:07:00;;;;;;;10.23;4.43;;;;;;;21.79;81.53;101502.81;4919220;29;20051;-77
2022/06/22 11:10:10;;;;;;;7.45;4.13;;;;;;;21.81;81.03;101503.63;4897866;29;20602;-77
2022/06/22 11:12:39;;;;;;;10.35;4.30;;;;;;;21.74;80.96;101502.97;4912224;29;20048;-77
2022/06/22 11:15:07;;;;;;;8.45;3.88;;;;;;;21.80;82.26;101504.56;4905471;29;20059;-77
2022/06/22 11:18:14;;;;;;;12.23;4.47;;;;;;;21.94;81.23;101498.72;4894077;29;20401;-77
2022/06/22 11:21:02;;;;;;;6.50;3.72;;;;;;;22.05;80.70;101495.69;4915683;29;20032;-77
2022/06/22 11:23:53;;;;;;;7.35;3.58;;;;;;;22.10;81.22;101497.28;4879912;29;20041;-77
2022/06/22 11:32:39;;;;;;;8.55;3.90;;;;;;;22.21;78.86;101507.63;4915208;29;20040;-77
2022/06/22 11:35:22;;;;;;;8.10;3.40;;;;;;;22.30;79.07;101501.09;4908965;29;20056;-77
2022/06/22 11:38:35;;;;;;;12.05;3.58;;;;;;;22.39;77.27;101498.09;4875868;29;20040;-77
2022/06/22 11:41:23;;;;;;;8.00;4.05;;;;;;;22.42;76.88;101491.72;4922666;29;20036;-77
2022/06/22 11:44:27;;;;;;;6.80;3.67;;;;;;;22.46;77.84;101488.03;4909333;29;20040;-77
2022/06/22 11:47:05;;;;;;;6.88;3.20;;;;;;;22.51;76.71;101478.88;4913160;29;20494;-77
2022/06/22 11:49:50;;;;;;;8.63;3.78;;;;;;;22.53;75.99;101481.47;4923918;29;20032;-77
2022/06/22 11:52:34;;;;;;;9.52;3.50;;;;;;;22.60;74.79;101484.81;4873667;29;20048;-77
2022/06/22 11:55:24;;;;;;;8.00;3.80;;;;;;;22.66;73.77;101484.59;4901853;29;20418;-77
2022/06/22 11:58:37;;;;;;;5.57;3.25;;;;;;;22.72;71.15;101478.97;4905365;29;20070;-77
2022/06/22 12:01:21;;;;;;;9.27;3.53;;;;;;;22.77;72.45;101477.00;4904565;29;20048;-77
2022/06/22 12:04:11;;;;;;;9.40;3.72;;;;;;;22.78;69.89;101476.94;4898520;29;20608;-77
2022/06/22 12:07:06;;;;;;;9.60;3.72;;;;;;;22.82;67.67;101475.03;4906642;29;20390;-77
2022/06/22 12:10:09;;;;;;;6.05;3.13;;;;;;;22.85;69.28;101463.28;4865618;29;20409;-77
2022/06/22 12:12:58;;;;;;;7.45;3.30;;;;;;;22.93;69.93;101462.06;4896197;29;20399;-77
2022/06/22 12:15:58;;;;;;;7.32;3.47;;;;;;;23.01;69.64;101458.19;4897480;29;20048;-77
2022/06/22 12:18:59;;;;;;;7.38;2.78;;;;;;;23.07;68.34;101455.28;4903441;29;20052;-77
2022/06/22 12:21:34;;;;;;;11.23;4.57;;;;;;;23.13;70.27;101453.22;4922559;29;20044;-77
2022/06/22 12:24:12;;;;;;;7.50;3.05;;;;;;;23.22;69.58;101448.44;4860829;29;20047;-77
2022/06/22 12:26:46;;;;;;;6.22;3.15;;;;;;;23.30;67.99;101441.78;4903777;29;20059;-77
2022/06/22 12:29:42;;;;;;;7.22;3.35;;;;;;;23.26;66.24;101442.84;4908342;29;20048;-76
2022/06/22 12:32:17;;;;;;;4.47;2.72;;;;;;;23.29;68.58;101432.00;4887425;29;20196;-76
2022/06/22 12:35:00;;;;;;;13.63;3.45;;;;;;;23.40;68.21;101434.22;4903990;29;20078;-77
2022/06/22 12:37:34;;;;;;;7.68;3.80;;;;;;;23.49;67.36;101431.16;4891173;29;20044;-77
2022/06/22 12:40:16;;;;;;;7.25;3.30;;;;;;;23.47;67.15;101435.72;4871002;29;20273;-77
2022/06/22 12:43:02;;;;;;;7.63;3.42;;;;;;;23.44;67.12;101433.19;4904975;29;20059;-77
2022/06/22 12:45:51;;;;;;;6.43;3.30;;;;;;;23.47;66.34;101438.41;4907518;29;20048;-77
2022/06/22 12:48:37;;;;;;;5.53;3.28;;;;;;;23.46;66.28;101438.47;4903861;29;20051;-77